createdAt,value
2022-09-28T00:00:17.363Z,59.84
2022-09-28T00:02:45.149Z,59.74
2022-09-28T00:05:14.448Z,59.68
2022-09-28T00:07:42.671Z,59.75
2022-09-28T00:10:11.024Z,59.48
2022-09-28T00:12:39.458Z,58.97
2022-09-28T00:15:08.087Z,59.52
2022-09-28T00:17:36.486Z,59.43
2022-09-28T00:20:05.824Z,59.47
2022-09-28T00:22:34.944Z,59.48
2022-09-28T00:25:02.704Z,59.54
2022-09-28T00:27:30.390Z,59.38
2022-09-28T00:29:58.122Z,58.19
2022-09-28T00:32:26.625Z,58.56
2022-09-28T00:34:55.092Z,59.24
2022-09-28T00:37:22.762Z,58.56
2022-09-28T00:39:51.877Z,59.03
2022-09-28T00:42:21.348Z,58.83
2022-09-28T00:44:49.752Z,58.48
2022-09-28T00:47:38.275Z,58.94
2022-09-28T00:50:08.199Z,59.19
2022-09-28T00:52:39.021Z,58.90
2022-09-28T00:55:09.879Z,59.02
2022-09-28T00:57:37.670Z,58.93
2022-09-28T01:00:06.627Z,59.12
2022-09-28T01:02:34.397Z,58.42
2022-09-28T01:05:02.282Z,58.52
2022-09-28T01:07:30.218Z,58.43
2022-09-28T01:09:58.088Z,58.66
2022-09-28T01:12:27.319Z,58.64
2022-09-28T01:14:55.255Z,58.70
2022-09-28T01:17:25.376Z,59.10
2022-09-28T01:20:26.779Z,58.29
2022-09-28T01:23:19.118Z,58.96
2022-09-28T01:25:51.866Z,58.28
2022-09-28T01:28:21.992Z,58.59
2022-09-28T01:30:55.135Z,58.91
2022-09-28T01:33:24.279Z,58.23
2022-09-28T01:35:53.907Z,58.52
2022-09-28T01:38:23.259Z,58.28
2022-09-28T01:40:51.079Z,57.98
2022-09-28T01:43:20.339Z,58.42
2022-09-28T01:45:50.510Z,58.30
2022-09-28T01:48:20.500Z,58.10
2022-09-28T01:50:48.567Z,58.32
2022-09-28T01:53:18.217Z,58.33
2022-09-28T01:55:46.703Z,58.34
2022-09-28T01:58:16.229Z,57.87
2022-09-28T02:00:45.854Z,57.80
2022-09-28T02:03:16.917Z,58.37
2022-09-28T02:05:46.831Z,57.99
2022-09-28T02:08:15.681Z,58.06
2022-09-28T02:10:44.925Z,58.15
2022-09-28T02:13:14.025Z,57.93
2022-09-28T02:15:43.791Z,57.98
2022-09-28T02:18:11.690Z,58.20
2022-09-28T02:20:41.107Z,57.84
2022-09-28T02:23:09.004Z,58.38
2022-09-28T02:25:40.171Z,58.04
2022-09-28T02:28:08.882Z,58.24
2022-09-28T02:30:37.883Z,58.04
2022-09-28T02:33:08.912Z,58.32
2022-09-28T02:35:36.938Z,58.30
2022-09-28T02:38:06.086Z,57.72
2022-09-28T02:40:35.648Z,58.56
2022-09-28T02:43:07.773Z,58.45
2022-09-28T02:45:42.599Z,58.32
2022-09-28T02:48:27.194Z,57.97
2022-09-28T02:51:07.174Z,58.10
2022-09-28T02:53:46.045Z,58.26
2022-09-28T02:56:27.307Z,58.16
2022-09-28T02:58:58.275Z,58.72
2022-09-28T03:01:29.564Z,58.21
2022-09-28T03:03:59.207Z,58.68
2022-09-28T03:06:28.485Z,58.25
2022-09-28T03:09:00.402Z,58.31
2022-09-28T03:11:29.972Z,58.17
2022-09-28T03:13:57.951Z,58.38
2022-09-28T03:16:27.453Z,58.38
2022-09-28T03:18:55.314Z,57.93
2022-09-28T03:21:23.096Z,57.87
2022-09-28T03:23:50.816Z,57.95
2022-09-28T03:26:20.158Z,58.23
2022-09-28T03:28:48.017Z,57.90
2022-09-28T03:31:15.890Z,58.51
2022-09-28T03:33:46.933Z,58.32
2022-09-28T03:36:15.159Z,58.55
2022-09-28T03:38:43.010Z,58.51
2022-09-28T03:41:10.966Z,58.04
2022-09-28T03:43:40.230Z,58.26
2022-09-28T03:46:10.289Z,58.16
2022-09-28T03:48:38.505Z,58.11
2022-09-28T03:51:09.291Z,58.09
2022-09-28T03:53:43.359Z,58.38
2022-09-28T03:56:13.369Z,57.99
2022-09-28T03:58:44.622Z,57.67
2022-09-28T04:01:17.828Z,57.82
2022-09-28T04:03:56.028Z,57.99
2022-09-28T04:06:24.999Z,57.85
2022-09-28T04:08:54.114Z,57.71
2022-09-28T04:11:21.922Z,58.27
2022-09-28T04:13:51.359Z,57.80
2022-09-28T04:16:25.346Z,58.18
2022-09-28T04:18:54.275Z,57.79
2022-09-28T04:21:22.480Z,58.12
2022-09-28T04:23:50.285Z,58.07
2022-09-28T04:26:20.546Z,57.75
2022-09-28T04:29:11.051Z,58.06
2022-09-28T04:31:40.613Z,58.01
2022-09-28T04:34:08.507Z,58.02
2022-09-28T04:36:36.508Z,58.03
2022-09-28T04:39:05.043Z,57.89
2022-09-28T04:41:41.741Z,57.96
2022-09-28T04:46:45.988Z,58.05
2022-09-28T04:49:13.795Z,58.14
2022-09-28T04:51:41.471Z,58.45
2022-09-28T04:54:09.196Z,58.71
2022-09-28T04:56:36.927Z,58.84
2022-09-28T04:59:06.134Z,58.24
2022-09-28T05:01:34.004Z,58.54
2022-09-28T05:04:03.547Z,58.43
2022-09-28T05:06:32.220Z,58.94
2022-09-28T05:08:59.885Z,58.61
2022-09-28T05:11:27.656Z,58.73
2022-09-28T05:13:55.530Z,58.76
2022-09-28T05:16:25.288Z,59.06
2022-09-28T05:18:56.260Z,58.81
2022-09-28T05:21:26.441Z,59.01
2022-09-28T05:23:56.147Z,58.89
2022-09-28T05:26:23.977Z,58.82
2022-09-28T05:28:51.808Z,58.33
2022-09-28T05:31:20.721Z,58.41
2022-09-28T05:33:48.735Z,58.72
2022-09-28T05:36:16.298Z,58.66
2022-09-28T05:38:45.349Z,58.67
2022-09-28T05:41:13.079Z,58.74
2022-09-28T05:43:41.049Z,58.69
2022-09-28T05:46:08.981Z,58.25
2022-09-28T05:48:36.797Z,58.56
2022-09-28T05:51:04.647Z,58.16
2022-09-28T05:53:32.211Z,58.55
2022-09-28T05:56:01.724Z,58.20
2022-09-28T05:58:29.475Z,58.31
2022-09-28T06:00:57.601Z,58.40
2022-09-28T06:03:25.555Z,58.03
2022-09-28T06:05:53.271Z,58.11
2022-09-28T06:08:21.149Z,58.52
2022-09-28T06:10:48.949Z,58.28
2022-09-28T06:13:17.860Z,58.56
2022-09-28T06:15:46.205Z,58.40
2022-09-28T06:18:15.141Z,58.01
2022-09-28T06:20:43.978Z,58.68
2022-09-28T06:23:11.797Z,58.21
2022-09-28T06:25:39.465Z,58.20
2022-09-28T06:28:10.353Z,58.33
2022-09-28T06:30:39.801Z,58.30
2022-09-28T06:33:08.242Z,58.20
2022-09-28T06:35:36.529Z,58.35
2022-09-28T06:38:08.108Z,58.13
2022-09-28T06:40:39.437Z,58.31
2022-09-28T06:43:10.260Z,58.53
2022-09-28T06:45:39.735Z,58.45
2022-09-28T06:48:07.901Z,58.09
2022-09-28T06:50:37.441Z,58.57
2022-09-28T06:53:05.875Z,58.45
2022-09-28T06:55:33.777Z,58.12
2022-09-28T06:58:02.707Z,58.49
2022-09-28T07:00:31.123Z,58.25
2022-09-28T07:03:01.374Z,58.04
2022-09-28T07:05:29.612Z,58.57
2022-09-28T07:07:57.307Z,57.99
2022-09-28T07:10:25.235Z,57.53
2022-09-28T07:12:52.927Z,57.42
2022-09-28T07:15:20.590Z,57.90
2022-09-28T07:17:59.875Z,57.60
2022-09-28T07:20:31.425Z,57.72
2022-09-28T07:23:15.633Z,57.89
2022-09-28T07:25:49.543Z,57.34
2022-09-28T07:28:17.511Z,57.19
2022-09-28T07:30:45.411Z,56.79
2022-09-28T07:33:14.606Z,57.06
2022-09-28T07:35:50.727Z,57.57
2022-09-28T07:38:18.426Z,56.94
2022-09-28T07:41:07.858Z,56.91
2022-09-28T07:43:35.992Z,57.16
2022-09-28T07:46:09.262Z,57.51
2022-09-28T07:48:38.078Z,57.24
2022-09-28T07:51:08.016Z,57.39
2022-09-28T07:53:36.086Z,57.52
2022-09-28T07:56:08.573Z,57.29
2022-09-28T07:58:36.695Z,56.99
2022-09-28T08:01:05.921Z,56.78
2022-09-28T08:03:33.751Z,56.79
2022-09-28T08:06:01.988Z,57.02
2022-09-28T08:08:31.587Z,56.82
2022-09-28T08:10:59.375Z,56.82
2022-09-28T08:13:27.412Z,56.19
2022-09-28T08:15:55.574Z,56.13
2022-09-28T08:18:23.842Z,56.13
2022-09-28T08:21:10.676Z,56.62
2022-09-28T08:23:39.988Z,56.18
2022-09-28T08:26:12.086Z,55.75
2022-09-28T08:28:43.115Z,55.87
2022-09-28T08:31:12.025Z,55.94
2022-09-28T08:33:41.196Z,56.26
2022-09-28T08:36:10.646Z,55.98
2022-09-28T08:38:39.613Z,56.42
2022-09-28T08:41:12.912Z,55.96
2022-09-28T08:43:53.039Z,55.51
2022-09-28T08:46:25.031Z,55.24
2022-09-28T08:49:20.741Z,55.13
2022-09-28T08:51:46.052Z,55.36
2022-09-28T08:54:30.059Z,54.89
2022-09-28T08:57:00.213Z,54.82
2022-09-28T08:59:38.227Z,55.16
2022-09-28T09:02:06.007Z,55.36
2022-09-28T09:04:33.866Z,54.77
2022-09-28T09:07:13.551Z,55.23
2022-09-28T09:09:49.169Z,55.02
2022-09-28T09:12:20.483Z,54.83
2022-09-28T09:15:13.024Z,54.13
2022-09-28T09:17:45.605Z,54.51
2022-09-28T09:20:26.251Z,53.69
2022-09-28T09:22:59.740Z,53.76
2022-09-28T09:25:43.405Z,53.69
2022-09-28T09:28:53.108Z,53.42
2022-09-28T09:31:29.916Z,53.19
2022-09-28T09:34:20.069Z,53.30
2022-09-28T09:36:55.923Z,52.20
2022-09-28T09:39:30.888Z,52.21
2022-09-28T09:42:06.226Z,52.20
2022-09-28T09:44:48.702Z,51.44
2022-09-28T09:47:18.293Z,51.74
2022-09-28T09:49:47.119Z,52.06
2022-09-28T09:52:19.133Z,52.33
2022-09-28T09:54:48.769Z,51.90
2022-09-28T09:57:20.184Z,52.08
2022-09-28T09:59:48.458Z,52.22
2022-09-28T10:02:24.172Z,52.16
2022-09-28T10:04:53.190Z,52.30
2022-09-28T10:07:23.673Z,52.87
2022-09-28T10:09:51.793Z,52.88
2022-09-28T10:12:21.647Z,52.71
2022-09-28T10:14:49.544Z,53.09
2022-09-28T10:17:18.340Z,53.29
2022-09-28T10:19:45.928Z,53.51
2022-09-28T10:22:16.097Z,53.68
2022-09-28T10:24:46.203Z,53.75
2022-09-28T10:27:15.119Z,53.83
2022-09-28T10:29:50.641Z,54.03
2022-09-28T10:32:23.770Z,53.86
2022-09-28T10:34:52.120Z,53.77
2022-09-28T10:37:19.860Z,53.49
2022-09-28T10:39:49.752Z,53.60
2022-09-28T10:42:20.417Z,53.99
2022-09-28T10:47:25.396Z,54.08
2022-09-28T10:49:53.421Z,53.44
2022-09-28T10:52:46.204Z,53.01
2022-09-28T10:55:30.622Z,53.10
2022-09-28T10:57:58.212Z,53.11
2022-09-28T11:00:38.167Z,51.73
2022-09-28T11:03:07.155Z,50.29
2022-09-28T11:05:35.884Z,49.91
2022-09-28T11:08:05.905Z,49.90
2022-09-28T11:10:33.649Z,49.93
2022-09-28T11:13:02.238Z,50.22
2022-09-28T11:15:30.906Z,50.00
2022-09-28T11:17:58.580Z,50.00
2022-09-28T11:20:35.810Z,50.35
2022-09-28T11:23:18.526Z,50.26
2022-09-28T11:25:51.410Z,50.48
2022-09-28T11:28:23.733Z,50.50
2022-09-28T11:30:52.386Z,50.35
2022-09-28T11:33:20.846Z,50.43
2022-09-28T11:35:51.483Z,50.55
2022-09-28T11:38:26.355Z,50.62
2022-09-28T11:41:00.767Z,50.45
2022-09-28T11:43:40.822Z,50.47
2022-09-28T11:46:10.451Z,50.40
2022-09-28T11:48:41.579Z,49.61
2022-09-28T11:51:13.122Z,49.64
2022-09-28T11:53:41.295Z,49.82
2022-09-28T11:56:13.518Z,50.27
2022-09-28T11:58:41.889Z,50.31
2022-09-28T12:01:18.581Z,50.38
2022-09-28T12:03:49.081Z,50.44
2022-09-28T12:06:19.699Z,50.59
2022-09-28T12:08:48.390Z,50.43
2022-09-28T12:11:18.141Z,50.28
2022-09-28T12:13:47.819Z,49.67
2022-09-28T12:16:45.286Z,49.51
2022-09-28T12:19:19.796Z,49.02
2022-09-28T12:21:51.213Z,48.79
2022-09-28T12:24:21.024Z,48.50
2022-09-28T12:26:51.076Z,48.21
2022-09-28T12:29:21.702Z,47.75
2022-09-28T12:31:54.987Z,47.63
2022-09-28T12:34:22.902Z,48.06
2022-09-28T12:36:59.992Z,48.01
2022-09-28T12:39:57.093Z,48.39
2022-09-28T12:42:44.213Z,48.10
2022-09-28T12:45:59.738Z,48.04
2022-09-28T12:48:36.143Z,48.09
2022-09-28T12:51:09.165Z,48.27
2022-09-28T12:54:00.125Z,48.07
2022-09-28T12:56:30.755Z,48.30
2022-09-28T12:59:05.192Z,47.96
2022-09-28T13:01:40.685Z,48.24
2022-09-28T13:04:19.080Z,48.51
2022-09-28T13:06:54.506Z,48.67
2022-09-28T13:09:24.165Z,48.26
2022-09-28T13:11:56.804Z,48.17
2022-09-28T13:14:51.303Z,47.96
2022-09-28T13:17:21.305Z,48.32
2022-09-28T13:19:51.816Z,48.34
2022-09-28T13:22:27.982Z,48.68
2022-09-28T13:24:57.701Z,48.83
2022-09-28T13:27:29.522Z,49.12
2022-09-28T13:29:58.799Z,49.91
2022-09-28T13:32:29.874Z,50.45
2022-09-28T13:34:57.541Z,50.58
2022-09-28T13:37:25.984Z,50.28
2022-09-28T13:39:55.089Z,50.18
2022-09-28T13:42:51.858Z,50.39
2022-09-28T13:45:51.650Z,50.50
2022-09-28T13:48:20.542Z,51.44
2022-09-28T13:51:10.853Z,51.14
2022-09-28T13:53:48.423Z,51.41
2022-09-28T13:56:24.526Z,50.52
2022-09-28T13:58:54.712Z,50.30
2022-09-28T14:01:32.618Z,50.34
2022-09-28T14:04:12.575Z,51.02
2022-09-28T14:06:49.437Z,51.32
2022-09-28T14:09:28.086Z,51.31
2022-09-28T14:11:58.769Z,51.46
2022-09-28T14:14:46.503Z,51.39
2022-09-28T14:17:50.056Z,51.11
2022-09-28T14:20:18.805Z,51.55
2022-09-28T14:22:55.173Z,50.83
2022-09-28T14:25:24.321Z,50.79
2022-09-28T14:28:13.819Z,50.71
2022-09-28T14:30:50.570Z,50.61
2022-09-28T14:33:24.549Z,50.48
2022-09-28T14:35:56.289Z,51.15
2022-09-28T14:38:43.480Z,51.24
2022-09-28T14:41:17.423Z,51.01
2022-09-28T14:44:02.615Z,51.11
2022-09-28T14:46:33.487Z,51.65
2022-09-28T14:49:03.445Z,51.91
2022-09-28T14:52:03.141Z,51.76
2022-09-28T14:54:39.205Z,52.55
2022-09-28T14:57:09.258Z,52.86
2022-09-28T14:59:42.777Z,52.80
2022-09-28T15:02:17.297Z,52.81
2022-09-28T15:04:46.656Z,52.87
2022-09-28T15:07:20.110Z,53.17
2022-09-28T15:09:49.609Z,53.27
2022-09-28T15:12:17.996Z,53.11
2022-09-28T15:14:48.610Z,52.70
2022-09-28T15:17:21.721Z,52.35
2022-09-28T15:19:58.257Z,51.91
2022-09-28T15:22:26.103Z,52.38
2022-09-28T15:25:00.007Z,52.71
2022-09-28T15:27:35.905Z,52.99
2022-09-28T15:30:18.217Z,53.48
2022-09-28T15:32:47.397Z,53.37
2022-09-28T15:35:20.422Z,52.53
2022-09-28T15:37:50.123Z,52.88
2022-09-28T15:40:26.635Z,53.58
2022-09-28T15:42:59.085Z,53.90
2022-09-28T15:45:28.646Z,53.72
2022-09-28T15:48:14.683Z,53.83
2022-09-28T15:50:45.738Z,53.88
2022-09-28T15:53:17.310Z,54.16
2022-09-28T15:55:45.038Z,54.61
2022-09-28T15:58:17.104Z,54.69
2022-09-28T16:00:45.076Z,55.27
2022-09-28T16:03:24.684Z,55.25
2022-09-28T16:05:53.150Z,55.06
2022-09-28T16:08:25.518Z,55.16
2022-09-28T16:10:55.825Z,55.64
2022-09-28T16:13:24.307Z,55.35
2022-09-28T16:15:57.972Z,54.92
2022-09-28T16:18:27.609Z,55.55
2022-09-28T16:20:58.219Z,55.49
2022-09-28T16:23:27.322Z,56.13
2022-09-28T16:25:57.172Z,55.87
2022-09-28T16:28:48.714Z,56.43
2022-09-28T16:31:33.590Z,56.70
2022-09-28T16:34:11.748Z,56.43
2022-09-28T16:36:45.441Z,57.34
2022-09-28T16:39:13.706Z,56.76
2022-09-28T16:41:41.600Z,57.03
2022-09-28T16:44:14.981Z,57.07
2022-09-28T16:46:42.782Z,57.36
2022-09-28T16:49:18.696Z,57.14
2022-09-28T16:51:47.333Z,57.50
2022-09-28T16:54:33.336Z,57.40
2022-09-28T16:57:01.881Z,57.42
2022-09-28T16:59:30.124Z,57.58
2022-09-28T17:01:58.473Z,57.19
2022-09-28T17:04:27.711Z,57.59
2022-09-28T17:06:55.837Z,57.70
2022-09-28T17:09:23.492Z,57.97
2022-09-28T17:11:56.128Z,57.69
2022-09-28T17:14:24.581Z,57.43
2022-09-28T17:17:12.533Z,57.75
2022-09-28T17:19:43.084Z,57.63
2022-09-28T17:22:11.082Z,57.91
2022-09-28T17:27:07.816Z,57.25
2022-09-28T17:29:35.677Z,57.52
2022-09-28T17:32:05.039Z,57.37
2022-09-28T17:34:32.860Z,57.42
2022-09-28T17:37:06.160Z,57.41
2022-09-28T17:39:35.024Z,57.16
2022-09-28T17:42:03.062Z,57.24
2022-09-28T17:44:30.947Z,57.12
2022-09-28T17:46:59.305Z,57.17
2022-09-28T17:49:27.239Z,57.20
2022-09-28T17:51:55.497Z,57.19
2022-09-28T17:54:29.044Z,57.63
2022-09-28T17:56:57.046Z,57.28
2022-09-28T17:59:26.733Z,57.62
2022-09-28T18:01:58.405Z,57.67
2022-09-28T18:04:50.869Z,57.79
2022-09-28T18:07:16.549Z,57.58
2022-09-28T18:09:45.936Z,57.60
2022-09-28T18:12:13.955Z,57.74
2022-09-28T18:14:42.224Z,57.90
2022-09-28T18:17:10.681Z,57.59
2022-09-28T18:19:38.599Z,57.52
2022-09-28T18:22:06.480Z,57.31
2022-09-28T18:24:34.297Z,57.76
2022-09-28T18:27:03.641Z,58.12
2022-09-28T18:29:33.460Z,58.19
2022-09-28T18:32:01.694Z,58.35
2022-09-28T18:34:29.522Z,58.20
2022-09-28T18:36:57.604Z,58.07
2022-09-28T18:39:26.550Z,58.16
2022-09-28T18:41:55.759Z,58.31
2022-09-28T18:44:25.247Z,58.68
2022-09-28T18:46:53.627Z,58.29
2022-09-28T18:49:21.563Z,58.23
2022-09-28T18:51:49.418Z,58.74
2022-09-28T18:54:17.392Z,59.16
2022-09-28T18:56:47.910Z,58.84
2022-09-28T18:59:18.053Z,58.69
2022-09-28T19:01:48.696Z,58.75
2022-09-28T19:04:24.010Z,58.90
2022-09-28T19:06:54.530Z,59.17
2022-09-28T19:09:24.837Z,59.01
2022-09-28T19:12:31.961Z,59.36
2022-09-28T19:21:29.018Z,59.45
2022-09-28T19:24:04.186Z,59.29
2022-09-28T19:29:17.765Z,59.32
2022-09-28T19:31:46.016Z,59.85
2022-09-28T19:34:15.419Z,59.71
2022-09-28T19:36:43.519Z,59.78
2022-09-28T19:39:14.151Z,59.72
2022-09-28T19:41:44.403Z,59.93
2022-09-28T19:44:15.747Z,59.69
2022-09-28T19:46:43.811Z,59.88
2022-09-28T19:49:12.506Z,59.81
2022-09-28T19:52:01.569Z,59.94
2022-09-28T19:54:36.323Z,59.81
2022-09-28T19:57:07.457Z,59.98
2022-09-28T19:59:38.948Z,59.81
2022-09-28T20:02:06.857Z,59.85
2022-09-28T20:04:34.637Z,59.73
2022-09-28T20:07:03.654Z,59.73
2022-09-28T20:09:31.579Z,59.97
2022-09-28T20:11:59.231Z,59.96
2022-09-28T20:14:32.890Z,60.02
2022-09-28T20:17:02.795Z,59.83
2022-09-28T20:19:30.680Z,59.71
2022-09-28T20:21:59.492Z,59.61
2022-09-28T20:24:29.301Z,59.75
2022-09-28T20:26:57.838Z,59.71
2022-09-28T20:29:26.652Z,59.86
2022-09-28T20:31:54.894Z,59.72
2022-09-28T20:34:26.390Z,59.62
2022-09-28T20:36:54.136Z,60.08
2022-09-28T20:39:21.935Z,60.02
2022-09-28T20:41:57.755Z,60.10
2022-09-28T20:44:25.523Z,60.16
2022-09-28T20:46:53.432Z,60.01
2022-09-28T20:49:21.649Z,60.22
2022-09-28T20:51:51.123Z,60.07
2022-09-28T20:54:18.954Z,60.23
2022-09-28T20:56:48.170Z,60.27
2022-09-28T20:59:17.259Z,60.39
2022-09-28T21:01:44.967Z,60.00
2022-09-28T21:04:12.786Z,60.44
2022-09-28T21:06:44.002Z,60.54
2022-09-28T21:09:12.099Z,60.63
2022-09-28T21:11:40.202Z,60.59
2022-09-28T21:14:08.595Z,60.64
2022-09-28T21:16:37.768Z,60.73
2022-09-28T21:19:05.606Z,60.48
2022-09-28T21:21:35.335Z,60.50
2022-09-28T21:24:03.141Z,60.49
2022-09-28T21:26:31.137Z,60.54
2022-09-28T21:28:59.327Z,60.66
2022-09-28T21:31:29.386Z,60.58
2022-09-28T21:33:58.626Z,60.67
2022-09-28T21:36:26.299Z,60.51
2022-09-28T21:38:54.998Z,60.60
2022-09-28T21:41:22.624Z,60.58
2022-09-28T21:43:50.208Z,60.65
2022-09-28T21:46:20.114Z,60.88
2022-09-28T21:48:51.356Z,60.86
2022-09-28T21:51:20.398Z,60.93
2022-09-28T21:53:49.058Z,60.85
2022-09-28T21:56:16.780Z,60.85
2022-09-28T21:58:44.373Z,60.74
2022-09-28T22:01:14.482Z,61.56
2022-09-28T22:03:43.906Z,61.31
2022-09-28T22:06:11.979Z,61.04
2022-09-28T22:08:41.059Z,61.15
2022-09-28T22:11:09.779Z,61.52
2022-09-28T22:13:39.901Z,60.93
2022-09-28T22:16:08.209Z,61.26
2022-09-28T22:18:35.878Z,60.96
2022-09-28T22:21:04.234Z,61.01
2022-09-28T22:23:31.868Z,61.43
2022-09-28T22:26:01.534Z,61.97
2022-09-28T22:28:30.119Z,61.35
2022-09-28T22:30:58.129Z,61.11
2022-09-28T22:33:25.969Z,61.46
2022-09-28T22:35:53.578Z,61.69
2022-09-28T22:38:21.480Z,61.68
2022-09-28T22:40:49.972Z,61.49
2022-09-28T22:43:19.807Z,61.53
2022-09-28T22:45:47.597Z,61.21
2022-09-28T22:48:15.296Z,61.54
2022-09-28T22:50:49.673Z,61.45
2022-09-28T22:53:17.289Z,61.58
2022-09-28T22:55:45.091Z,61.39
2022-09-28T22:58:15.653Z,61.34
2022-09-28T23:00:45.637Z,61.42
2022-09-28T23:03:13.449Z,61.66
2022-09-28T23:05:41.186Z,61.74
2022-09-28T23:08:08.754Z,61.76
2022-09-28T23:10:36.388Z,61.30
2022-09-28T23:13:04.001Z,61.24
2022-09-28T23:15:32.405Z,61.47
2022-09-28T23:18:01.334Z,61.31
2022-09-28T23:20:29.018Z,61.42
2022-09-28T23:22:56.564Z,61.39
2022-09-28T23:27:51.939Z,61.80
2022-09-28T23:30:21.531Z,61.42
2022-09-28T23:32:49.622Z,61.26
2022-09-28T23:35:18.683Z,61.83
2022-09-28T23:37:50.544Z,61.72
2022-09-28T23:40:18.343Z,61.55
2022-09-28T23:42:46.095Z,61.64
2022-09-28T23:45:13.845Z,61.54
2022-09-28T23:47:41.474Z,61.58
2022-09-28T23:50:10.025Z,61.57
2022-09-28T23:52:39.017Z,61.45
2022-09-28T23:55:07.530Z,61.61
2022-09-28T23:57:35.208Z,61.56
